Al Hudaydah, Yemen
Current Conditions -  °F | °C
As of 9:00 AM on Sunday 26 Oct 2014 (Local Time) from OYHD Reporting Station
Few Clouds Few Clouds  
Wind Chill: 88°   Ceiling: Unl
Heat Index: 98°   Visibility: 4mi
Dew Point: 75°   Wind: 3mph
Humidity: 66%   Direction: 220°SW
Pressure: 29.91"   Gusts: NA
Location:  14.8°N, 42.95°E
Report Text: OYHD 260600Z 22003KT 6000 FEW030 31/24 Q1013
Loading
Personal Weather Stations






























Interactive Weather Map
Tropical Storm Tracking
New forecast layout! Learn more

10-Day Weather Forecast

Advertisements
Track Severe Weather on mobile